Time;durP1;ratioP1;P1;durP2;ratioP2;P2;SDS_P1;SDS_P2;PMS_P1;PMS_P2;Temp;Humidity;BMP_temperature;BMP_pressure;BME280_temperature;BME280_humidity;BME280_pressure;Samples;Min_cycle;Max_cycle;Signal;HPM_P1;HPM_P2
2022/11/30 00:02:03;;;;;;;14.70;3.60;;;20.50;98.00;;;;;;5034042;28;20392;-85
2022/11/30 00:04:31;;;;;;;16.00;3.72;;;20.50;98.00;;;;;;4993779;28;20392;-83
2022/11/30 00:06:59;;;;;;;14.35;3.70;;;20.70;97.60;;;;;;4992569;28;20732;-85
2022/11/30 00:09:29;;;;;;;14.63;3.35;;;20.70;97.50;;;;;;4992116;28;20435;-85
2022/11/30 00:11:59;;;;;;;14.10;3.80;;;20.90;97.20;;;;;;4991271;28;20467;-89
2022/11/30 00:14:26;;;;;;;12.02;3.20;;;21.10;97.30;;;;;;5007526;28;20395;-86
2022/11/30 00:16:53;;;;;;;12.77;3.42;;;21.40;96.70;;;;;;5007671;28;20385;-89
2022/11/30 00:19:19;;;;;;;16.92;3.60;;;21.60;95.70;;;;;;5006445;28;20399;-84
2022/11/30 00:21:49;;;;;;;17.65;3.50;;;21.70;95.30;;;;;;4995954;28;20390;-85
2022/11/30 00:24:18;;;;;;;18.25;3.63;;;21.60;95.20;;;;;;5014210;28;20426;-83
2022/11/30 00:26:51;;;;;;;13.43;3.33;;;21.60;95.20;;;;;;5014291;28;20390;-84
2022/11/30 00:29:21;;;;;;;16.17;3.60;;;21.50;95.20;;;;;;4997714;28;20396;-85
2022/11/30 00:31:48;;;;;;;15.05;3.53;;;21.40;95.30;;;;;;4993398;28;20514;-88
2022/11/30 00:34:15;;;;;;;13.10;3.50;;;21.40;94.90;;;;;;5011277;28;20402;-85
2022/11/30 00:36:44;;;;;;;15.43;3.70;;;21.30;95.20;;;;;;4997539;28;20385;-86
2022/11/30 00:39:12;;;;;;;13.60;3.83;;;21.30;95.30;;;;;;5014387;28;20387;-85
2022/11/30 00:41:41;;;;;;;13.05;3.45;;;21.30;95.50;;;;;;5016243;28;20580;-84
2022/11/30 00:44:08;;;;;;;15.23;3.67;;;21.20;95.20;;;;;;5016184;28;20407;-84
2022/11/30 00:46:35;;;;;;;14.40;3.35;;;21.20;95.50;;;;;;5013376;28;20454;-88
2022/11/30 00:49:04;;;;;;;15.55;3.80;;;21.40;95.10;;;;;;5059264;28;20382;-84
2022/11/30 00:51:34;;;;;;;13.35;3.50;;;21.40;94.80;;;;;;5072864;28;20359;-84
2022/11/30 00:54:01;;;;;;;12.90;3.22;;;21.40;94.80;;;;;;5072032;28;20852;-85
2022/11/30 00:56:28;;;;;;;15.52;3.75;;;21.30;94.80;;;;;;5059893;28;20846;-85
2022/11/30 00:59:00;;;;;;;11.98;3.20;;;21.40;94.70;;;;;;5073999;28;20412;-83
2022/11/30 01:01:27;;;;;;;14.18;3.30;;;21.40;94.70;;;;;;5072166;28;20898;-93
2022/11/30 01:04:01;;;;;;;13.52;3.38;;;21.50;94.70;;;;;;5074706;28;20402;-88
2022/11/30 01:06:39;;;;;;;13.00;3.40;;;21.50;94.60;;;;;;5048039;28;20914;-85
2022/11/30 01:09:06;;;;;;;12.35;3.40;;;21.50;94.50;;;;;;5019400;28;20690;-93
2022/11/30 01:11:33;;;;;;;15.32;3.45;;;21.60;94.40;;;;;;5072435;28;20383;-87
2022/11/30 01:14:02;;;;;;;11.98;3.35;;;21.70;94.00;;;;;;5078762;28;20370;-86
2022/11/30 01:16:36;;;;;;;13.48;3.40;;;21.80;93.40;;;;;;5080115;28;20375;-95
2022/11/30 01:19:07;;;;;;;12.82;3.67;;;21.60;93.80;;;;;;5077428;28;20370;-84
2022/11/30 01:21:53;;;;;;;13.65;3.78;;;21.60;94.40;;;;;;5082063;28;20358;-84
2022/11/30 01:24:45;;;;;;;12.38;3.30;;;21.60;94.00;;;;;;5025580;28;20402;-82
2022/11/30 01:27:12;;;;;;;12.20;3.13;;;21.60;93.70;;;;;;5036895;28;20381;-94
2022/11/30 01:29:46;;;;;;;13.15;3.45;;;21.90;93.70;;;;;;5041772;28;20412;-85
2022/11/30 01:32:15;;;;;;;15.63;3.40;;;22.20;92.20;;;;;;5040853;28;20382;-87
2022/11/30 01:34:43;;;;;;;12.60;3.15;;;22.20;92.20;;;;;;5027917;28;20377;-85
2022/11/30 01:37:28;;;;;;;18.50;3.72;;;22.20;92.10;;;;;;5005386;28;20887;-86
2022/11/30 01:40:06;;;;;;;13.18;3.33;;;22.30;91.70;;;;;;5025261;28;20382;-84
2022/11/30 01:42:51;;;;;;;13.88;3.40;;;22.30;91.80;;;;;;5023096;28;20403;-85
2022/11/30 01:45:26;;;;;;;12.38;3.25;;;22.60;91.80;;;;;;5023444;28;20399;-84
2022/11/30 01:48:08;;;;;;;14.57;3.50;;;22.90;90.80;;;;;;5022512;28;20398;-84
2022/11/30 01:50:50;;;;;;;12.27;3.30;;;23.30;90.50;;;;;;5025225;28;20398;-84
2022/11/30 01:53:19;;;;;;;13.40;3.22;;;23.40;89.70;;;;;;5024346;28;20452;-87
2022/11/30 01:55:48;;;;;;;12.70;3.20;;;23.80;88.70;;;;;;5020656;28;20493;-95
2022/11/30 01:58:31;;;;;;;9.82;2.90;;;24.40;85.90;;;;;;5064824;28;20402;-85
2022/11/30 02:01:01;;;;;;;12.80;3.78;;;24.90;82.70;;;;;;5083439;28;20406;-89
2022/11/30 02:03:48;;;;;;;12.15;4.10;;;25.20;80.10;;;;;;5078727;28;20413;-84
2022/11/30 02:06:17;;;;;;;11.75;3.90;;;25.50;77.50;;;;;;5058103;28;20375;-85
2022/11/30 02:08:46;;;;;;;15.98;3.60;;;25.70;76.60;;;;;;5035583;28;20382;-85
2022/11/30 02:11:26;;;;;;;11.23;3.53;;;25.60;75.90;;;;;;5073905;28;20527;-92
2022/11/30 02:14:25;;;;;;;10.88;3.38;;;25.40;77.20;;;;;;5069815;28;20384;-83
2022/11/30 02:17:24;;;;;;;10.23;3.15;;;25.10;76.90;;;;;;5042659;28;20392;-84
2022/11/30 02:20:33;;;;;;;11.40;3.15;;;24.90;77.30;;;;;;4996030;28;20380;-84
2022/11/30 02:23:30;;;;;;;9.52;2.80;;;24.60;76.60;;;;;;5076402;28;20976;-85
2022/11/30 02:26:23;;;;;;;11.43;3.10;;;24.30;78.40;;;;;;5078961;28;20362;-95
2022/11/30 02:29:26;;;;;;;10.70;3.17;;;24.40;78.40;;;;;;5072652;28;20386;-88
2022/11/30 02:32:09;;;;;;;9.48;3.00;;;24.50;77.40;;;;;;4993458;28;20475;-83
2022/11/30 02:34:39;;;;;;;9.18;3.00;;;24.50;76.80;;;;;;4977483;28;20840;-85
2022/11/30 02:37:29;;;;;;;12.47;3.00;;;24.50;77.40;;;;;;4997380;28;20417;-83
2022/11/30 02:39:59;;;;;;;11.15;3.10;;;24.30;78.00;;;;;;4997692;28;20463;-83
2022/11/30 02:42:28;;;;;;;10.40;3.00;;;24.10;77.30;;;;;;4961416;29;20983;-83
2022/11/30 02:45:01;;;;;;;11.02;3.05;;;23.70;78.00;;;;;;4973360;28;20395;-83
2022/11/30 02:47:57;;;;;;;11.73;2.95;;;23.30;79.60;;;;;;4963199;28;20623;-86
2022/11/30 02:50:33;;;;;;;11.43;2.90;;;23.10;81.10;;;;;;4993389;28;20392;-83
2022/11/30 02:53:07;;;;;;;12.70;3.10;;;22.90;81.20;;;;;;5011614;28;20369;-84
2022/11/30 02:55:36;;;;;;;9.52;2.72;;;22.90;81.70;;;;;;4965202;28;20394;-85
2022/11/30 02:58:04;;;;;;;10.05;2.60;;;22.90;82.10;;;;;;4936763;28;20464;-86
2022/11/30 03:00:32;;;;;;;21.17;3.28;;;23.00;82.40;;;;;;4997717;28;20416;-85
2022/11/30 03:03:07;;;;;;;12.40;3.53;;;23.20;82.60;;;;;;4995270;28;20413;-83
2022/11/30 03:05:38;;;;;;;12.60;3.25;;;23.40;81.30;;;;;;4983574;28;20384;-91
2022/11/30 03:08:07;;;;;;;11.25;3.25;;;23.60;81.00;;;;;;5030264;28;20738;-86
2022/11/30 03:10:38;;;;;;;11.03;3.00;;;24.00;80.20;;;;;;5073390;28;20858;-85
2022/11/30 03:13:05;;;;;;;11.88;3.10;;;24.40;78.60;;;;;;5074947;28;20384;-93
2022/11/30 03:15:38;;;;;;;10.85;2.75;;;24.70;78.30;;;;;;5066866;28;20378;-89
2022/11/30 03:18:08;;;;;;;10.57;2.90;;;25.10;76.30;;;;;;5033534;28;20397;-90
2022/11/30 03:20:39;;;;;;;11.70;3.17;;;25.30;75.40;;;;;;5076332;28;20469;-92
2022/11/30 03:23:07;;;;;;;10.77;3.10;;;25.70;74.60;;;;;;5080265;28;20393;-84
2022/11/30 03:25:35;;;;;;;10.15;2.90;;;25.80;72.60;;;;;;5081296;28;20400;-84
2022/11/30 03:28:05;;;;;;;9.52;3.00;;;25.60;73.50;;;;;;5061409;28;20488;-83
2022/11/30 03:30:35;;;;;;;8.85;2.90;;;25.40;73.00;;;;;;5078627;28;20460;-83
2022/11/30 03:33:10;;;;;;;9.27;2.80;;;25.00;74.20;;;;;;5081747;28;20410;-83
2022/11/30 03:35:40;;;;;;;8.70;3.10;;;24.90;73.60;;;;;;5078549;28;20382;-84
2022/11/30 03:38:11;;;;;;;11.98;3.10;;;24.50;75.50;;;;;;5079201;28;20366;-83
2022/11/30 03:40:38;;;;;;;9.75;2.83;;;24.20;76.70;;;;;;5079145;28;20385;-86
2022/11/30 03:43:05;;;;;;;12.80;3.30;;;23.90;78.80;;;;;;5060963;28;20402;-84
2022/11/30 03:45:36;;;;;;;12.50;3.30;;;23.90;78.60;;;;;;5076747;28;20406;-85
2022/11/30 03:48:09;;;;;;;10.43;3.40;;;23.90;78.70;;;;;;5056393;28;20386;-88
2022/11/30 03:50:36;;;;;;;11.02;3.45;;;23.80;79.20;;;;;;5077975;28;20370;-93
2022/11/30 03:53:06;;;;;;;11.98;3.60;;;23.80;78.60;;;;;;5076558;28;20401;-89
2022/11/30 03:55:34;;;;;;;10.48;2.95;;;23.80;79.30;;;;;;5075173;28;20390;-85
2022/11/30 03:58:01;;;;;;;12.20;3.20;;;23.80;78.30;;;;;;5075696;28;20848;-84
2022/11/30 04:00:30;;;;;;;13.27;3.42;;;23.70;78.70;;;;;;5056070;28;20377;-83
2022/11/30 04:02:57;;;;;;;14.60;3.60;;;23.80;79.20;;;;;;5072186;28;20390;-87
2022/11/30 04:05:24;;;;;;;11.00;3.20;;;24.00;78.70;;;;;;5072235;28;20445;-83
2022/11/30 04:07:51;;;;;;;10.45;3.08;;;24.10;78.10;;;;;;5074270;28;20381;-84
2022/11/30 04:10:23;;;;;;;10.13;3.10;;;24.30;78.00;;;;;;5073759;28;20450;-84
2022/11/30 04:12:52;;;;;;;10.18;3.17;;;24.50;75.80;;;;;;5013104;28;20378;-87
2022/11/30 04:15:19;;;;;;;13.50;3.17;;;24.70;76.50;;;;;;5030791;28;20381;-86
2022/11/30 04:17:46;;;;;;;11.88;3.30;;;24.60;76.80;;;;;;5033424;28;20382;-88
2022/11/30 04:20:13;;;;;;;11.00;3.17;;;24.40;77.30;;;;;;5031084;28;20473;-85
2022/11/30 04:22:43;;;;;;;15.18;3.40;;;24.00;77.70;;;;;;5036144;28;20405;-84
2022/11/30 04:25:10;;;;;;;11.48;2.90;;;23.70;79.40;;;;;;4979677;28;20373;-83
2022/11/30 04:27:43;;;;;;;12.87;3.20;;;23.70;80.40;;;;;;5007287;28;20425;-91
2022/11/30 04:30:16;;;;;;;12.45;3.40;;;23.60;79.40;;;;;;5002274;28;20405;-84
2022/11/30 04:32:43;;;;;;;10.30;2.88;;;23.40;79.90;;;;;;5035154;28;20378;-85
2022/11/30 04:35:10;;;;;;;15.15;3.15;;;23.30;79.60;;;;;;5030637;28;20385;-91
2022/11/30 04:37:37;;;;;;;13.38;3.20;;;23.30;79.00;;;;;;5014925;28;20484;-89
2022/11/30 04:40:06;;;;;;;9.63;3.10;;;23.20;80.30;;;;;;5011609;28;20414;-83
2022/11/30 04:42:32;;;;;;;9.23;2.90;;;23.20;80.30;;;;;;5010512;28;20407;-84
2022/11/30 04:44:59;;;;;;;12.00;3.17;;;23.30;79.90;;;;;;5006558;28;20406;-88
2022/11/30 04:47:29;;;;;;;11.48;3.30;;;23.20;80.70;;;;;;5011476;28;20386;-85
2022/11/30 04:49:56;;;;;;;10.02;3.03;;;23.10;79.90;;;;;;5024254;28;20773;-86
2022/11/30 04:52:23;;;;;;;10.65;2.92;;;23.20;79.80;;;;;;5016631;28;20746;-84
2022/11/30 04:54:50;;;;;;;12.80;3.33;;;23.20;80.50;;;;;;5021056;28;20461;-83
2022/11/30 04:57:18;;;;;;;11.88;3.25;;;23.00;81.10;;;;;;5013553;28;20395;-83
2022/11/30 04:59:45;;;;;;;10.90;3.30;;;23.00;79.40;;;;;;5017501;28;20379;-83
2022/11/30 05:02:12;;;;;;;11.52;3.33;;;23.00;79.80;;;;;;5010666;28;20437;-82
2022/11/30 05:04:39;;;;;;;10.75;2.90;;;23.00;79.00;;;;;;5050123;28;20395;-87
2022/11/30 05:07:06;;;;;;;10.57;3.10;;;23.10;79.30;;;;;;5053305;28;20384;-90
2022/11/30 05:09:33;;;;;;;9.02;2.90;;;23.10;78.50;;;;;;5053859;28;20384;-86
2022/11/30 05:12:02;;;;;;;10.52;2.67;;;23.40;78.00;;;;;;5050161;28;20394;-82
2022/11/30 05:14:29;;;;;;;9.57;2.80;;;23.80;76.80;;;;;;5050527;28;20466;-84
2022/11/30 05:16:56;;;;;;;10.60;2.90;;;24.10;74.80;;;;;;5056022;28;20388;-84
2022/11/30 05:19:23;;;;;;;11.50;2.85;;;24.50;73.90;;;;;;5042893;28;20386;-86
2022/11/30 05:21:50;;;;;;;7.30;2.50;;;25.10;71.90;;;;;;5054848;28;20382;-80
2022/11/30 05:24:17;;;;;;;9.45;2.63;;;25.60;70.20;;;;;;5056023;28;20450;-82
2022/11/30 05:26:44;;;;;;;7.97;2.80;;;25.90;68.80;;;;;;5059963;28;20443;-88
2022/11/30 05:29:11;;;;;;;9.73;2.70;;;26.30;69.00;;;;;;5060412;28;20382;-83
2022/11/30 05:31:39;;;;;;;9.40;2.40;;;27.10;65.90;;;;;;5064403;28;20459;-82
2022/11/30 05:34:06;;;;;;;8.05;2.78;;;27.80;64.70;;;;;;5065651;28;20918;-80
2022/11/30 05:36:33;;;;;;;8.55;2.80;;;28.20;63.90;;;;;;5059351;28;20391;-81
2022/11/30 05:39:00;;;;;;;9.00;2.70;;;28.90;61.70;;;;;;5051469;28;20394;-84
2022/11/30 05:41:27;;;;;;;8.18;2.50;;;29.10;61.10;;;;;;5062657;28;20468;-84
2022/11/30 05:43:55;;;;;;;8.07;2.60;;;29.10;58.90;;;;;;5059652;28;20501;-85
2022/11/30 05:46:22;;;;;;;7.57;2.50;;;28.60;59.50;;;;;;5069598;28;20865;-81
2022/11/30 05:48:49;;;;;;;7.30;2.47;;;28.30;59.30;;;;;;5063873;28;20374;-80
2022/11/30 05:51:19;;;;;;;6.03;2.28;;;28.40;59.80;;;;;;5053682;28;20407;-82
2022/11/30 05:53:46;;;;;;;10.52;2.35;;;28.60;58.60;;;;;;5054019;28;20383;-80
2022/11/30 05:56:19;;;;;;;5.55;2.00;;;28.70;58.50;;;;;;5057504;28;20802;-81
2022/11/30 05:58:47;;;;;;;7.90;2.47;;;29.10;57.70;;;;;;5057699;28;20402;-83
2022/11/30 06:01:23;;;;;;;6.15;2.00;;;29.50;57.50;;;;;;5034477;28;20487;-79
2022/11/30 06:03:51;;;;;;;6.03;2.10;;;29.60;55.50;;;;;;5058043;28;20398;-82
2022/11/30 06:06:19;;;;;;;8.25;2.20;;;29.30;56.10;;;;;;5069364;28;20727;-82
2022/11/30 06:08:48;;;;;;;7.17;2.10;;;28.80;55.10;;;;;;5067112;28;20382;-80
2022/11/30 06:11:17;;;;;;;7.50;2.45;;;28.00;56.70;;;;;;5047472;28;20388;-81
2022/11/30 06:13:44;;;;;;;6.40;2.20;;;27.30;57.70;;;;;;5057770;28;20763;-81
2022/11/30 06:16:10;;;;;;;7.55;2.35;;;26.70;58.70;;;;;;5054509;28;20873;-84
2022/11/30 06:18:38;;;;;;;7.13;2.38;;;26.30;59.60;;;;;;5063711;28;20435;-82
2022/11/30 06:21:09;;;;;;;6.90;2.45;;;25.90;60.80;;;;;;5071634;28;20383;-83
2022/11/30 06:23:36;;;;;;;6.32;2.10;;;25.60;62.10;;;;;;5057349;28;20390;-82
2022/11/30 06:26:08;;;;;;;6.13;2.20;;;25.10;61.40;;;;;;5060037;28;20398;-80
2022/11/30 06:28:38;;;;;;;7.37;2.33;;;24.60;62.70;;;;;;5056407;28;20384;-83
2022/11/30 06:31:09;;;;;;;6.63;2.25;;;24.30;63.60;;;;;;5056423;28;20426;-80
2022/11/30 06:33:36;;;;;;;7.88;2.40;;;24.10;64.40;;;;;;5059650;28;20382;-82
2022/11/30 06:36:04;;;;;;;7.90;2.30;;;23.80;65.20;;;;;;5052892;28;20445;-86
2022/11/30 06:38:32;;;;;;;6.38;2.15;;;23.70;65.70;;;;;;5069699;28;20370;-81
2022/11/30 06:41:11;;;;;;;7.05;2.45;;;23.50;66.60;;;;;;5057414;28;20401;-81
2022/11/30 06:43:39;;;;;;;6.72;2.20;;;23.40;66.90;;;;;;5072653;28;20397;-81
2022/11/30 06:46:07;;;;;;;6.68;2.15;;;23.10;67.80;;;;;;5077310;28;20431;-81
2022/11/30 06:48:35;;;;;;;6.68;2.30;;;23.00;67.90;;;;;;5063289;28;20409;-87
2022/11/30 06:51:04;;;;;;;7.63;2.45;;;22.80;68.30;;;;;;5058495;28;20450;-84
2022/11/30 06:53:31;;;;;;;6.47;2.13;;;22.70;68.40;;;;;;5046756;28;20411;-86
2022/11/30 06:56:02;;;;;;;7.57;2.15;;;22.70;69.20;;;;;;5077462;28;20933;-83
2022/11/30 06:58:29;;;;;;;6.80;2.30;;;22.70;68.60;;;;;;5059823;28;20945;-84
2022/11/30 07:00:56;;;;;;;6.25;1.92;;;22.70;69.00;;;;;;5070976;28;20390;-83
2022/11/30 07:03:23;;;;;;;9.68;2.42;;;22.50;69.20;;;;;;5064386;28;20437;-86
2022/11/30 07:05:50;;;;;;;7.03;2.30;;;22.40;69.50;;;;;;5054910;28;20459;-79
2022/11/30 07:08:17;;;;;;;5.97;2.20;;;22.30;69.90;;;;;;5060919;28;20387;-83
2022/11/30 07:10:46;;;;;;;8.77;2.50;;;22.20;69.80;;;;;;5061818;28;20403;-87
2022/11/30 07:13:16;;;;;;;7.90;2.40;;;21.90;70.30;;;;;;5061147;28;20970;-84
2022/11/30 07:15:44;;;;;;;8.48;2.40;;;21.80;71.10;;;;;;5064767;28;20412;-89
2022/11/30 07:18:12;;;;;;;7.87;2.43;;;21.60;71.80;;;;;;5049135;28;20859;-82
2022/11/30 07:20:39;;;;;;;7.47;2.38;;;21.50;73.00;;;;;;5039412;28;20390;-83
2022/11/30 07:26:08;;;;;;;9.40;2.40;;;21.40;73.30;;;;;;5075070;28;20381;-80
2022/11/30 07:28:40;;;;;;;7.72;2.50;;;21.30;73.80;;;;;;5068169;28;20414;-82
2022/11/30 07:31:15;;;;;;;7.53;2.53;;;21.30;74.00;;;;;;5064461;28;20384;-80
2022/11/30 07:33:42;;;;;;;9.98;2.53;;;21.20;74.20;;;;;;5055311;28;20881;-83
2022/11/30 07:36:10;;;;;;;8.25;2.50;;;21.20;74.30;;;;;;5051280;28;20437;-81
2022/11/30 07:38:38;;;;;;;9.25;2.60;;;21.10;75.10;;;;;;5055375;28;20471;-83
2022/11/30 07:41:05;;;;;;;7.10;2.22;;;21.00;75.30;;;;;;5060991;28;20391;-81
2022/11/30 07:43:32;;;;;;;7.38;2.28;;;20.90;75.50;;;;;;5045813;28;20446;-85
2022/11/30 07:45:59;;;;;;;8.05;2.35;;;20.90;76.10;;;;;;5070215;28;20388;-84
2022/11/30 07:48:27;;;;;;;8.63;2.50;;;20.80;76.40;;;;;;5069986;28;20480;-81
2022/11/30 07:50:54;;;;;;;9.82;2.50;;;20.80;77.00;;;;;;5051936;28;20413;-85
2022/11/30 07:53:21;;;;;;;8.27;2.38;;;20.80;76.80;;;;;;5062855;28;20449;-91
2022/11/30 07:55:48;;;;;;;9.52;2.60;;;20.70;77.40;;;;;;5050817;28;20362;-82
2022/11/30 07:58:15;;;;;;;10.20;2.63;;;20.60;77.20;;;;;;5063917;28;20487;-83
2022/11/30 08:00:42;;;;;;;7.47;2.37;;;20.50;77.90;;;;;;5024912;28;20386;-82
2022/11/30 08:03:09;;;;;;;9.60;2.37;;;20.40;77.50;;;;;;5050540;28;20387;-80
2022/11/30 08:05:36;;;;;;;8.63;2.63;;;20.40;77.80;;;;;;5061530;28;20390;-81
2022/11/30 08:08:03;;;;;;;8.97;2.47;;;20.20;78.50;;;;;;5066652;28;20727;-82
2022/11/30 08:10:30;;;;;;;8.40;2.37;;;20.20;79.40;;;;;;5064549;28;20386;-84
2022/11/30 08:12:58;;;;;;;9.73;2.45;;;20.20;79.70;;;;;;5050319;28;20736;-84
2022/11/30 08:15:25;;;;;;;9.18;2.28;;;20.10;79.90;;;;;;5055107;28;20779;-85
2022/11/30 08:17:54;;;;;;;9.73;2.33;;;20.00;80.20;;;;;;5056929;28;20414;-84
2022/11/30 08:20:21;;;;;;;8.35;2.33;;;20.00;80.40;;;;;;5061669;28;20489;-80
2022/11/30 08:22:50;;;;;;;9.40;2.60;;;20.00;81.30;;;;;;5062812;28;20893;-86
2022/11/30 08:25:17;;;;;;;10.45;2.47;;;20.10;81.40;;;;;;5061132;28;20747;-84
2022/11/30 08:27:47;;;;;;;9.73;2.63;;;20.00;82.00;;;;;;5064434;28;20374;-83
2022/11/30 08:30:14;;;;;;;11.15;2.70;;;20.00;82.80;;;;;;5065800;28;20451;-85
2022/11/30 08:32:41;;;;;;;9.80;2.60;;;20.00;82.70;;;;;;5064851;28;20436;-86
2022/11/30 08:35:09;;;;;;;7.55;2.55;;;20.00;82.40;;;;;;5054315;28;20471;-81
2022/11/30 08:37:37;;;;;;;9.25;2.40;;;20.00;82.40;;;;;;5057867;28;20381;-86
2022/11/30 08:40:04;;;;;;;8.80;2.40;;;20.00;83.00;;;;;;5065026;28;20386;-81
2022/11/30 08:42:32;;;;;;;8.75;2.53;;;20.00;83.40;;;;;;5057090;28;20438;-83
2022/11/30 08:44:59;;;;;;;11.73;2.75;;;20.00;83.90;;;;;;5062398;28;20400;-82
2022/11/30 08:47:26;;;;;;;9.77;2.72;;;19.80;84.80;;;;;;5069136;28;20420;-81
2022/11/30 08:49:53;;;;;;;10.15;2.55;;;19.70;85.10;;;;;;5070549;28;20381;-80
2022/11/30 08:52:20;;;;;;;10.63;2.70;;;19.70;85.80;;;;;;5069047;28;20896;-80
2022/11/30 08:54:47;;;;;;;10.82;2.58;;;19.60;86.70;;;;;;5070364;28;20394;-80
2022/11/30 08:57:19;;;;;;;12.57;2.83;;;19.50;87.30;;;;;;5067097;28;20877;-79
2022/11/30 08:59:46;;;;;;;13.57;2.85;;;19.50;88.20;;;;;;5062306;28;20406;-82
2022/11/30 09:02:18;;;;;;;12.20;3.03;;;19.50;88.90;;;;;;5063953;28;20491;-88
2022/11/30 09:04:47;;;;;;;10.25;2.90;;;19.50;90.10;;;;;;5066120;28;20402;-81
2022/11/30 09:07:14;;;;;;;12.48;3.10;;;19.40;90.10;;;;;;5065433;28;20388;-82
2022/11/30 09:09:41;;;;;;;13.70;3.00;;;19.30;90.70;;;;;;5071295;28;20469;-86
2022/11/30 09:12:08;;;;;;;9.82;2.70;;;19.30;91.00;;;;;;5068757;28;20386;-79
2022/11/30 09:14:35;;;;;;;11.77;3.00;;;19.30;91.30;;;;;;5057595;28;20442;-78
2022/11/30 09:17:03;;;;;;;10.25;2.90;;;19.30;91.50;;;;;;5064023;28;20443;-82
2022/11/30 09:19:30;;;;;;;13.77;2.90;;;19.20;92.00;;;;;;5068761;28;20869;-80
2022/11/30 09:21:57;;;;;;;11.77;2.92;;;19.20;92.30;;;;;;5058896;28;20417;-79
2022/11/30 09:24:24;;;;;;;12.98;3.00;;;19.10;92.80;;;;;;5057245;28;20419;-82
2022/11/30 09:26:56;;;;;;;11.13;3.00;;;19.00;93.20;;;;;;5066749;28;20378;-84
2022/11/30 09:29:23;;;;;;;11.85;3.05;;;18.90;93.60;;;;;;5069283;28;20888;-81
2022/11/30 09:31:50;;;;;;;11.82;2.83;;;18.80;94.20;;;;;;5054864;28;20469;-80
2022/11/30 09:34:17;;;;;;;11.00;2.90;;;18.80;94.70;;;;;;5059294;28;20868;-83
2022/11/30 09:36:44;;;;;;;11.75;2.90;;;18.70;94.70;;;;;;5055356;28;20421;-84
2022/11/30 09:39:11;;;;;;;14.52;3.25;;;18.60;95.00;;;;;;5064465;28;20444;-84
2022/11/30 09:41:47;;;;;;;11.23;2.73;;;18.50;95.60;;;;;;5062628;28;20487;-80
2022/11/30 09:44:35;;;;;;;11.80;2.83;;;18.50;96.00;;;;;;5060323;28;20415;-79
2022/11/30 09:47:02;;;;;;;10.70;3.22;;;18.40;96.70;;;;;;5060294;28;20806;-86
2022/11/30 09:49:44;;;;;;;10.35;2.92;;;18.50;97.10;;;;;;5065923;28;20396;-83
2022/11/30 09:52:21;;;;;;;11.50;3.30;;;18.60;97.20;;;;;;5055756;28;20382;-81
2022/11/30 09:54:48;;;;;;;14.52;3.20;;;18.60;97.10;;;;;;5066725;28;20467;-85
2022/11/30 09:57:38;;;;;;;11.53;3.20;;;18.70;97.10;;;;;;5067233;28;20422;-81
2022/11/30 10:00:13;;;;;;;10.65;2.72;;;18.70;97.40;;;;;;5064858;28;20397;-81
2022/11/30 10:02:41;;;;;;;12.98;3.50;;;18.70;97.20;;;;;;5060480;28;20380;-83
2022/11/30 10:05:19;;;;;;;12.43;2.92;;;18.70;97.40;;;;;;5058308;28;20394;-85
2022/11/30 10:07:52;;;;;;;14.38;3.35;;;18.70;97.40;;;;;;5067996;28;20382;-88
2022/11/30 10:10:32;;;;;;;13.18;3.30;;;18.70;97.50;;;;;;5055044;28;20393;-82
2022/11/30 10:13:13;;;;;;;10.90;2.95;;;18.70;97.60;;;;;;5068657;28;20377;-84
2022/11/30 10:15:59;;;;;;;12.10;3.10;;;18.70;97.80;;;;;;5063179;28;20896;-86
2022/11/30 10:19:05;;;;;;;14.50;3.25;;;18.70;97.80;;;;;;5058688;28;20384;-86
2022/11/30 10:22:07;;;;;;;11.55;3.13;;;18.70;98.00;;;;;;4956039;28;20573;-82
2022/11/30 10:24:46;;;;;;;13.35;3.10;;;18.80;98.10;;;;;;4967734;28;20446;-81
2022/11/30 10:27:47;;;;;;;11.88;3.22;;;18.80;98.20;;;;;;4967267;28;20389;-81
2022/11/30 10:30:17;;;;;;;14.50;3.25;;;18.70;98.20;;;;;;4965680;28;21415;-88
2022/11/30 10:32:48;;;;;;;13.25;3.20;;;18.70;98.40;;;;;;4967553;28;20465;-83
2022/11/30 10:35:34;;;;;;;10.63;2.95;;;18.60;98.60;;;;;;4967339;28;20394;-81
2022/11/30 10:38:30;;;;;;;10.27;2.80;;;18.60;98.80;;;;;;4965803;28;20817;-82
2022/11/30 10:41:27;;;;;;;13.52;2.90;;;18.60;99.10;;;;;;4967305;28;20862;-86
2022/11/30 10:43:58;;;;;;;14.43;3.00;;;18.60;99.30;;;;;;4967328;28;20522;-85
2022/11/30 10:46:42;;;;;;;12.27;3.13;;;18.60;99.30;;;;;;4967886;28;20399;-83
2022/11/30 10:49:18;;;;;;;9.98;2.85;;;18.60;99.40;;;;;;4966910;28;20386;-83
2022/11/30 10:51:49;;;;;;;13.60;3.23;;;18.60;99.50;;;;;;4966999;28;20394;-82
2022/11/30 10:54:19;;;;;;;12.60;3.20;;;18.60;99.50;;;;;;4966052;28;20390;-83
2022/11/30 10:56:47;;;;;;;12.63;3.20;;;18.60;99.60;;;;;;4966635;28;20485;-85
2022/11/30 10:59:41;;;;;;;10.73;3.27;;;18.60;99.70;;;;;;5040078;28;20958;-82
2022/11/30 11:02:45;;;;;;;12.85;3.13;;;18.50;99.90;;;;;;5049306;28;20470;-83
2022/11/30 11:05:14;;;;;;;14.55;3.53;;;18.50;99.90;;;;;;4937401;29;20472;-88
2022/11/30 11:08:24;;;;;;;15.15;3.40;;;18.50;99.90;;;;;;4946988;29;21313;-83
2022/11/30 11:10:51;;;;;;;15.43;3.35;;;18.50;99.90;;;;;;4940345;28;20885;-87
2022/11/30 11:13:40;;;;;;;15.45;3.30;;;18.40;99.90;;;;;;4949585;28;20482;-85
2022/11/30 11:16:09;;;;;;;11.80;3.05;;;18.40;99.90;;;;;;4944213;28;20392;-84
2022/11/30 11:18:54;;;;;;;12.90;3.35;;;18.40;99.90;;;;;;4942730;28;20391;-81
2022/11/30 11:21:22;;;;;;;13.15;3.15;;;18.30;99.90;;;;;;4948502;28;20431;-83
2022/11/30 11:23:55;;;;;;;12.37;3.20;;;18.40;99.90;;;;;;4960320;28;20420;-82
2022/11/30 11:26:27;;;;;;;10.82;3.33;;;18.40;99.90;;;;;;4948153;28;20380;-81
2022/11/30 11:29:00;;;;;;;15.00;3.00;;;18.40;99.90;;;;;;4948743;28;20432;-81
2022/11/30 11:31:43;;;;;;;13.18;3.17;;;18.40;99.90;;;;;;4953951;28;20400;-81
2022/11/30 11:34:35;;;;;;;11.77;3.20;;;18.40;99.90;;;;;;4946814;28;20899;-83
2022/11/30 11:37:16;;;;;;;11.52;2.85;;;18.30;99.90;;;;;;4947837;28;20494;-81
2022/11/30 11:39:54;;;;;;;13.57;3.30;;;18.30;99.90;;;;;;4951761;28;20408;-81
2022/11/30 11:42:21;;;;;;;11.77;3.10;;;18.30;99.90;;;;;;5006682;28;20806;-83
2022/11/30 11:44:57;;;;;;;14.05;3.25;;;18.30;99.90;;;;;;5058199;28;20497;-81
2022/11/30 11:47:43;;;;;;;14.68;3.17;;;19.90;99.90;;;;;;5062268;28;20416;-85
2022/11/30 11:50:22;;;;;;;12.98;3.00;;;18.40;99.90;;;;;;5060948;28;20724;-81
2022/11/30 11:52:49;;;;;;;13.90;3.53;;;18.40;99.90;;;;;;5043356;28;20752;-83
2022/11/30 11:55:19;;;;;;;14.95;3.25;;;18.30;99.90;;;;;;5063059;28;20382;-84
2022/11/30 11:58:01;;;;;;;14.07;3.40;;;18.30;99.90;;;;;;5047127;28;20394;-81
2022/11/30 12:00:28;;;;;;;11.27;3.20;;;18.20;99.90;;;;;;5065995;28;20378;-80
2022/11/30 12:03:07;;;;;;;14.45;3.30;;;18.20;99.90;;;;;;5065928;28;20479;-81
2022/11/30 12:05:48;;;;;;;13.27;3.38;;;18.30;99.90;;;;;;5066493;28;20416;-85
2022/11/30 12:08:48;;;;;;;10.35;3.05;;;18.30;99.90;;;;;;5067693;28;20364;-81
2022/11/30 12:11:43;;;;;;;15.18;3.75;;;18.30;99.90;;;;;;5055777;28;20481;-82
2022/11/30 12:14:16;;;;;;;11.17;3.10;;;18.30;99.90;;;;;;5052968;28;20928;-82
2022/11/30 12:16:58;;;;;;;14.30;3.33;;;18.40;99.90;;;;;;5058397;28;20470;-84
2022/11/30 12:19:33;;;;;;;13.40;3.28;;;18.30;99.90;;;;;;5062763;28;20404;-82
2022/11/30 12:22:06;;;;;;;14.50;3.50;;;18.40;99.90;;;;;;5063942;28;20385;-82
2022/11/30 12:24:37;;;;;;;12.38;3.30;;;18.30;99.90;;;;;;5066089;28;20503;-85
2022/11/30 12:27:36;;;;;;;13.50;3.20;;;18.20;99.90;;;;;;5059704;28;20468;-83
2022/11/30 12:30:28;;;;;;;13.05;3.22;;;18.20;99.90;;;;;;5062023;28;20386;-82
2022/11/30 12:33:01;;;;;;;11.80;3.20;;;18.20;99.90;;;;;;5047939;28;20746;-82
2022/11/30 12:35:46;;;;;;;14.45;3.50;;;18.20;99.90;;;;;;5055353;28;20511;-82
2022/11/30 12:38:19;;;;;;;12.93;3.47;;;18.20;99.90;;;;;;5054679;28;20470;-82
2022/11/30 12:40:49;;;;;;;11.18;2.97;;;18.30;99.90;;;;;;5049775;28;20378;-82
2022/11/30 12:43:35;;;;;;;11.85;3.22;;;18.30;99.90;;;;;;5065733;28;20428;-90
2022/11/30 12:46:17;;;;;;;13.70;3.30;;;18.20;99.90;;;;;;5060078;28;20444;-85
2022/11/30 12:49:12;;;;;;;14.10;3.30;;;18.20;99.90;;;;;;5062524;28;20386;-82
2022/11/30 12:51:43;;;;;;;15.20;3.45;;;18.20;99.90;;;;;;5059319;28;21127;-81
2022/11/30 12:54:13;;;;;;;10.63;3.20;;;18.20;99.90;;;;;;5051668;28;20405;-81
2022/11/30 12:56:54;;;;;;;12.63;3.33;;;18.20;99.90;;;;;;5057967;28;20382;-81
2022/11/30 12:59:42;;;;;;;12.18;3.00;;;18.10;99.90;;;;;;5063397;28;20395;-81
2022/11/30 13:02:34;;;;;;;14.20;3.30;;;18.10;99.90;;;;;;5051034;28;20413;-83
2022/11/30 13:05:11;;;;;;;12.30;3.40;;;18.10;99.90;;;;;;5060940;28;20391;-81
2022/11/30 13:08:01;;;;;;;10.95;3.20;;;18.20;99.90;;;;;;5061141;28;20377;-82
2022/11/30 13:10:39;;;;;;;14.27;3.30;;;18.20;99.90;;;;;;5035499;28;20472;-82
2022/11/30 13:13:13;;;;;;;11.30;3.20;;;18.20;99.90;;;;;;5049230;28;20440;-88